sensor_id;sensor_type;location;lat;lon;timestamp;P1;durP1;ratioP1;P2;durP2;ratioP2
35126;SDS011;21300;52.006;5.798;2022-10-18T00:00:33;529.28;;;34.47;;
35126;SDS011;21300;52.006;5.798;2022-10-18T00:02:59;546.00;;;34.75;;
35126;SDS011;21300;52.006;5.798;2022-10-18T00:05:24;488.35;;;34.35;;
35126;SDS011;21300;52.006;5.798;2022-10-18T00:07:50;613.50;;;39.50;;
35126;SDS011;21300;52.006;5.798;2022-10-18T00:10:16;379.10;;;31.75;;
35126;SDS011;21300;52.006;5.798;2022-10-18T00:12:41;619.42;;;37.83;;
35126;SDS011;21300;52.006;5.798;2022-10-18T00:15:07;267.85;;;27.92;;
35126;SDS011;21300;52.006;5.798;2022-10-18T00:17:34;516.50;;;32.70;;
35126;SDS011;21300;52.006;5.798;2022-10-18T00:20:01;535.78;;;37.20;;
35126;SDS011;21300;52.006;5.798;2022-10-18T00:22:27;385.27;;;33.33;;
35126;SDS011;21300;52.006;5.798;2022-10-18T00:24:52;414.27;;;33.33;;
35126;SDS011;21300;52.006;5.798;2022-10-18T00:27:18;517.08;;;36.05;;
35126;SDS011;21300;52.006;5.798;2022-10-18T00:29:44;316.85;;;32.25;;
35126;SDS011;21300;52.006;5.798;2022-10-18T00:32:09;374.02;;;33.97;;
35126;SDS011;21300;52.006;5.798;2022-10-18T00:34:36;496.23;;;37.25;;
35126;SDS011;21300;52.006;5.798;2022-10-18T00:37:03;498.05;;;35.38;;
35126;SDS011;21300;52.006;5.798;2022-10-18T00:39:29;509.60;;;38.30;;
35126;SDS011;21300;52.006;5.798;2022-10-18T00:41:55;359.35;;;34.60;;
35126;SDS011;21300;52.006;5.798;2022-10-18T00:46:49;436.85;;;35.35;;
35126;SDS011;21300;52.006;5.798;2022-10-18T00:52:37;467.40;;;39.17;;
35126;SDS011;21300;52.006;5.798;2022-10-18T00:55:06;543.13;;;42.67;;
35126;SDS011;21300;52.006;5.798;2022-10-18T00:57:32;457.45;;;37.45;;
35126;SDS011;21300;52.006;5.798;2022-10-18T00:59:59;537.13;;;39.33;;
35126;SDS011;21300;52.006;5.798;2022-10-18T01:02:25;587.97;;;43.30;;
35126;SDS011;21300;52.006;5.798;2022-10-18T01:04:52;720.95;;;47.00;;
35126;SDS011;21300;52.006;5.798;2022-10-18T01:07:24;384.73;;;37.63;;
35126;SDS011;21300;52.006;5.798;2022-10-18T01:15:33;520.60;;;40.97;;
35126;SDS011;21300;52.006;5.798;2022-10-18T01:23:49;421.52;;;37.25;;
35126;SDS011;21300;52.006;5.798;2022-10-18T01:26:22;374.50;;;35.35;;
35126;SDS011;21300;52.006;5.798;2022-10-18T01:31:57;190.57;;;30.73;;
35126;SDS011;21300;52.006;5.798;2022-10-18T01:34:26;427.90;;;36.05;;
35126;SDS011;21300;52.006;5.798;2022-10-18T01:36:57;201.82;;;29.98;;
35126;SDS011;21300;52.006;5.798;2022-10-18T01:39:26;183.98;;;32.15;;
35126;SDS011;21300;52.006;5.798;2022-10-18T01:41:55;490.17;;;38.80;;
35126;SDS011;21300;52.006;5.798;2022-10-18T01:44:24;234.82;;;31.17;;
35126;SDS011;21300;52.006;5.798;2022-10-18T01:46:52;271.98;;;32.58;;
35126;SDS011;21300;52.006;5.798;2022-10-18T01:49:20;311.38;;;32.38;;
35126;SDS011;21300;52.006;5.798;2022-10-18T01:51:45;322.40;;;33.83;;
35126;SDS011;21300;52.006;5.798;2022-10-18T01:54:11;243.52;;;31.48;;
35126;SDS011;21300;52.006;5.798;2022-10-18T01:59:23;287.65;;;31.25;;
35126;SDS011;21300;52.006;5.798;2022-10-18T02:01:54;165.27;;;28.52;;
35126;SDS011;21300;52.006;5.798;2022-10-18T02:07:00;412.70;;;34.22;;
35126;SDS011;21300;52.006;5.798;2022-10-18T02:09:38;296.17;;;28.92;;
35126;SDS011;21300;52.006;5.798;2022-10-18T02:12:10;514.92;;;38.03;;
35126;SDS011;21300;52.006;5.798;2022-10-18T02:14:37;216.15;;;26.25;;
35126;SDS011;21300;52.006;5.798;2022-10-18T02:17:06;198.90;;;26.85;;
35126;SDS011;21300;52.006;5.798;2022-10-18T02:22:04;171.05;;;25.48;;
35126;SDS011;21300;52.006;5.798;2022-10-18T02:24:35;159.35;;;23.48;;
35126;SDS011;21300;52.006;5.798;2022-10-18T02:27:03;183.65;;;24.65;;
35126;SDS011;21300;52.006;5.798;2022-10-18T02:29:29;204.63;;;25.00;;
35126;SDS011;21300;52.006;5.798;2022-10-18T02:32:06;153.80;;;22.88;;
35126;SDS011;21300;52.006;5.798;2022-10-18T02:34:41;127.10;;;23.02;;
35126;SDS011;21300;52.006;5.798;2022-10-18T02:37:13;389.38;;;27.27;;
35126;SDS011;21300;52.006;5.798;2022-10-18T02:39:47;458.60;;;29.00;;
35126;SDS011;21300;52.006;5.798;2022-10-18T02:42:15;251.07;;;24.57;;
35126;SDS011;21300;52.006;5.798;2022-10-18T02:44:41;137.43;;;21.02;;
35126;SDS011;21300;52.006;5.798;2022-10-18T02:47:08;119.65;;;22.13;;
35126;SDS011;21300;52.006;5.798;2022-10-18T02:49:34;120.68;;;20.70;;
35126;SDS011;21300;52.006;5.798;2022-10-18T02:52:00;111.88;;;20.40;;
35126;SDS011;21300;52.006;5.798;2022-10-18T02:54:26;104.32;;;19.90;;
35126;SDS011;21300;52.006;5.798;2022-10-18T02:56:51;112.15;;;19.45;;
35126;SDS011;21300;52.006;5.798;2022-10-18T02:59:17;101.53;;;18.33;;
35126;SDS011;21300;52.006;5.798;2022-10-18T03:01:43;93.07;;;18.92;;
35126;SDS011;21300;52.006;5.798;2022-10-18T03:04:08;68.28;;;15.27;;
35126;SDS011;21300;52.006;5.798;2022-10-18T03:06:34;57.13;;;17.67;;
35126;SDS011;21300;52.006;5.798;2022-10-18T03:09:03;91.57;;;17.40;;
35126;SDS011;21300;52.006;5.798;2022-10-18T03:11:29;303.85;;;20.10;;
35126;SDS011;21300;52.006;5.798;2022-10-18T03:13:55;149.45;;;17.05;;
35126;SDS011;21300;52.006;5.798;2022-10-18T03:16:21;129.63;;;18.80;;
35126;SDS011;21300;52.006;5.798;2022-10-18T03:18:47;191.35;;;17.73;;
35126;SDS011;21300;52.006;5.798;2022-10-18T03:21:12;111.60;;;17.23;;
35126;SDS011;21300;52.006;5.798;2022-10-18T03:23:38;78.40;;;15.48;;
35126;SDS011;21300;52.006;5.798;2022-10-18T03:26:06;312.40;;;21.52;;
35126;SDS011;21300;52.006;5.798;2022-10-18T03:28:32;154.23;;;17.50;;
35126;SDS011;21300;52.006;5.798;2022-10-18T03:31:01;95.93;;;15.70;;
35126;SDS011;21300;52.006;5.798;2022-10-18T03:33:28;66.93;;;16.65;;
35126;SDS011;21300;52.006;5.798;2022-10-18T03:35:54;176.25;;;17.65;;
35126;SDS011;21300;52.006;5.798;2022-10-18T03:38:20;167.60;;;17.38;;
35126;SDS011;21300;52.006;5.798;2022-10-18T03:40:45;148.18;;;17.38;;
35126;SDS011;21300;52.006;5.798;2022-10-18T03:43:11;172.70;;;17.85;;
35126;SDS011;21300;52.006;5.798;2022-10-18T03:45:36;233.65;;;18.40;;
35126;SDS011;21300;52.006;5.798;2022-10-18T03:48:02;157.45;;;17.92;;
35126;SDS011;21300;52.006;5.798;2022-10-18T03:50:28;175.40;;;17.35;;
35126;SDS011;21300;52.006;5.798;2022-10-18T03:52:53;156.68;;;17.83;;
35126;SDS011;21300;52.006;5.798;2022-10-18T03:55:19;163.93;;;17.95;;
35126;SDS011;21300;52.006;5.798;2022-10-18T03:57:45;122.43;;;17.73;;
35126;SDS011;21300;52.006;5.798;2022-10-18T04:00:11;100.35;;;16.63;;
35126;SDS011;21300;52.006;5.798;2022-10-18T04:02:37;130.90;;;16.63;;
35126;SDS011;21300;52.006;5.798;2022-10-18T04:05:02;108.38;;;16.02;;
35126;SDS011;21300;52.006;5.798;2022-10-18T04:07:28;83.55;;;15.60;;
35126;SDS011;21300;52.006;5.798;2022-10-18T04:09:54;94.55;;;16.38;;
35126;SDS011;21300;52.006;5.798;2022-10-18T04:12:19;74.88;;;14.75;;
35126;SDS011;21300;52.006;5.798;2022-10-18T04:14:45;100.72;;;14.82;;
35126;SDS011;21300;52.006;5.798;2022-10-18T04:17:11;87.53;;;14.68;;
35126;SDS011;21300;52.006;5.798;2022-10-18T04:19:36;66.82;;;13.65;;
35126;SDS011;21300;52.006;5.798;2022-10-18T04:22:02;77.53;;;14.48;;
35126;SDS011;21300;52.006;5.798;2022-10-18T04:24:27;59.10;;;14.50;;
35126;SDS011;21300;52.006;5.798;2022-10-18T04:26:53;56.08;;;13.10;;
35126;SDS011;21300;52.006;5.798;2022-10-18T04:29:18;51.50;;;13.85;;
35126;SDS011;21300;52.006;5.798;2022-10-18T04:31:44;62.38;;;14.07;;
35126;SDS011;21300;52.006;5.798;2022-10-18T04:34:10;64.38;;;13.70;;
35126;SDS011;21300;52.006;5.798;2022-10-18T04:36:35;43.00;;;13.32;;
35126;SDS011;21300;52.006;5.798;2022-10-18T04:39:01;54.08;;;13.68;;
35126;SDS011;21300;52.006;5.798;2022-10-18T04:41:27;59.58;;;14.85;;
35126;SDS011;21300;52.006;5.798;2022-10-18T04:43:52;52.10;;;13.95;;
35126;SDS011;21300;52.006;5.798;2022-10-18T04:46:18;45.13;;;12.88;;
35126;SDS011;21300;52.006;5.798;2022-10-18T04:48:43;56.67;;;14.00;;
35126;SDS011;21300;52.006;5.798;2022-10-18T04:51:09;56.72;;;13.40;;
35126;SDS011;21300;52.006;5.798;2022-10-18T04:53:35;65.00;;;14.68;;
35126;SDS011;21300;52.006;5.798;2022-10-18T04:56:00;77.80;;;14.52;;
35126;SDS011;21300;52.006;5.798;2022-10-18T04:58:26;77.35;;;12.98;;
35126;SDS011;21300;52.006;5.798;2022-10-18T05:00:51;55.15;;;13.13;;
35126;SDS011;21300;52.006;5.798;2022-10-18T05:03:17;73.25;;;13.68;;
35126;SDS011;21300;52.006;5.798;2022-10-18T05:05:43;43.15;;;13.52;;
35126;SDS011;21300;52.006;5.798;2022-10-18T05:08:10;62.05;;;13.90;;
35126;SDS011;21300;52.006;5.798;2022-10-18T05:10:36;76.70;;;15.18;;
35126;SDS011;21300;52.006;5.798;2022-10-18T05:13:03;91.22;;;16.25;;
35126;SDS011;21300;52.006;5.798;2022-10-18T05:15:28;63.65;;;15.98;;
35126;SDS011;21300;52.006;5.798;2022-10-18T05:17:54;96.03;;;15.35;;
35126;SDS011;21300;52.006;5.798;2022-10-18T05:20:20;97.80;;;15.30;;
35126;SDS011;21300;52.006;5.798;2022-10-18T05:22:45;109.05;;;15.43;;
35126;SDS011;21300;52.006;5.798;2022-10-18T05:25:11;90.97;;;15.38;;
35126;SDS011;21300;52.006;5.798;2022-10-18T05:27:36;78.10;;;14.88;;
35126;SDS011;21300;52.006;5.798;2022-10-18T05:30:02;70.03;;;15.13;;
35126;SDS011;21300;52.006;5.798;2022-10-18T05:32:28;75.05;;;15.57;;
35126;SDS011;21300;52.006;5.798;2022-10-18T05:34:53;72.82;;;15.85;;
35126;SDS011;21300;52.006;5.798;2022-10-18T05:37:19;78.25;;;15.57;;
35126;SDS011;21300;52.006;5.798;2022-10-18T05:39:45;140.82;;;16.80;;
35126;SDS011;21300;52.006;5.798;2022-10-18T05:42:11;61.65;;;15.25;;
35126;SDS011;21300;52.006;5.798;2022-10-18T05:44:37;76.13;;;15.07;;
35126;SDS011;21300;52.006;5.798;2022-10-18T05:47:02;75.30;;;14.43;;
35126;SDS011;21300;52.006;5.798;2022-10-18T05:49:28;60.05;;;13.77;;
35126;SDS011;21300;52.006;5.798;2022-10-18T05:51:54;84.03;;;13.98;;
35126;SDS011;21300;52.006;5.798;2022-10-18T05:54:19;57.10;;;13.15;;
35126;SDS011;21300;52.006;5.798;2022-10-18T05:56:45;71.82;;;13.32;;
35126;SDS011;21300;52.006;5.798;2022-10-18T05:59:11;66.35;;;12.70;;
35126;SDS011;21300;52.006;5.798;2022-10-18T06:01:37;95.90;;;13.15;;
35126;SDS011;21300;52.006;5.798;2022-10-18T06:04:03;103.45;;;12.75;;
35126;SDS011;21300;52.006;5.798;2022-10-18T06:06:29;126.75;;;13.77;;
35126;SDS011;21300;52.006;5.798;2022-10-18T06:08:56;108.30;;;12.90;;
35126;SDS011;21300;52.006;5.798;2022-10-18T06:11:21;84.97;;;12.18;;
35126;SDS011;21300;52.006;5.798;2022-10-18T06:13:48;117.50;;;13.48;;
35126;SDS011;21300;52.006;5.798;2022-10-18T06:16:16;113.55;;;13.45;;
35126;SDS011;21300;52.006;5.798;2022-10-18T06:18:46;115.00;;;14.13;;
35126;SDS011;21300;52.006;5.798;2022-10-18T06:21:13;124.60;;;13.80;;
35126;SDS011;21300;52.006;5.798;2022-10-18T06:23:39;75.97;;;11.93;;
35126;SDS011;21300;52.006;5.798;2022-10-18T06:26:05;129.85;;;13.70;;
35126;SDS011;21300;52.006;5.798;2022-10-18T06:28:34;105.78;;;12.80;;
35126;SDS011;21300;52.006;5.798;2022-10-18T06:31:01;48.50;;;11.10;;
35126;SDS011;21300;52.006;5.798;2022-10-18T06:33:29;86.50;;;12.43;;
35126;SDS011;21300;52.006;5.798;2022-10-18T06:35:56;72.65;;;10.18;;
35126;SDS011;21300;52.006;5.798;2022-10-18T06:38:22;36.22;;;9.68;;
35126;SDS011;21300;52.006;5.798;2022-10-18T06:40:48;74.38;;;10.07;;
35126;SDS011;21300;52.006;5.798;2022-10-18T06:43:14;99.93;;;10.73;;
35126;SDS011;21300;52.006;5.798;2022-10-18T06:45:39;78.60;;;9.68;;
35126;SDS011;21300;52.006;5.798;2022-10-18T06:48:05;113.25;;;9.70;;
35126;SDS011;21300;52.006;5.798;2022-10-18T06:50:31;118.00;;;9.70;;
35126;SDS011;21300;52.006;5.798;2022-10-18T06:52:57;52.97;;;8.57;;
35126;SDS011;21300;52.006;5.798;2022-10-18T06:55:22;49.38;;;9.00;;
35126;SDS011;21300;52.006;5.798;2022-10-18T06:57:48;48.38;;;9.32;;
35126;SDS011;21300;52.006;5.798;2022-10-18T07:00:13;47.53;;;9.05;;
35126;SDS011;21300;52.006;5.798;2022-10-18T07:02:39;63.20;;;9.45;;
35126;SDS011;21300;52.006;5.798;2022-10-18T07:05:08;51.67;;;9.60;;
35126;SDS011;21300;52.006;5.798;2022-10-18T07:07:34;50.45;;;9.18;;
35126;SDS011;21300;52.006;5.798;2022-10-18T07:09:59;75.10;;;10.50;;
35126;SDS011;21300;52.006;5.798;2022-10-18T07:12:25;63.05;;;10.65;;
35126;SDS011;21300;52.006;5.798;2022-10-18T07:14:51;53.20;;;10.02;;
35126;SDS011;21300;52.006;5.798;2022-10-18T07:17:16;55.97;;;9.90;;
35126;SDS011;21300;52.006;5.798;2022-10-18T07:19:42;56.38;;;10.82;;
35126;SDS011;21300;52.006;5.798;2022-10-18T07:22:07;47.95;;;10.57;;
35126;SDS011;21300;52.006;5.798;2022-10-18T07:24:33;43.80;;;10.95;;
35126;SDS011;21300;52.006;5.798;2022-10-18T07:26:59;58.83;;;10.73;;
35126;SDS011;21300;52.006;5.798;2022-10-18T07:29:24;45.03;;;10.95;;
35126;SDS011;21300;52.006;5.798;2022-10-18T07:31:50;23.50;;;9.57;;
35126;SDS011;21300;52.006;5.798;2022-10-18T07:34:15;30.42;;;10.18;;
35126;SDS011;21300;52.006;5.798;2022-10-18T07:36:41;31.30;;;10.52;;
35126;SDS011;21300;52.006;5.798;2022-10-18T07:39:07;29.33;;;11.05;;
35126;SDS011;21300;52.006;5.798;2022-10-18T07:41:32;42.78;;;11.32;;
35126;SDS011;21300;52.006;5.798;2022-10-18T07:43:58;32.10;;;10.38;;
35126;SDS011;21300;52.006;5.798;2022-10-18T07:46:25;46.05;;;12.18;;
35126;SDS011;21300;52.006;5.798;2022-10-18T07:48:50;29.88;;;10.98;;
35126;SDS011;21300;52.006;5.798;2022-10-18T07:51:17;25.08;;;11.13;;
35126;SDS011;21300;52.006;5.798;2022-10-18T07:53:44;24.52;;;10.38;;
35126;SDS011;21300;52.006;5.798;2022-10-18T07:56:10;40.83;;;10.77;;
35126;SDS011;21300;52.006;5.798;2022-10-18T07:58:41;21.73;;;9.73;;
35126;SDS011;21300;52.006;5.798;2022-10-18T08:01:08;45.63;;;10.55;;
35126;SDS011;21300;52.006;5.798;2022-10-18T08:03:34;32.67;;;10.90;;
35126;SDS011;21300;52.006;5.798;2022-10-18T08:06:00;31.27;;;10.57;;
35126;SDS011;21300;52.006;5.798;2022-10-18T08:08:27;17.13;;;11.07;;
35126;SDS011;21300;52.006;5.798;2022-10-18T08:10:54;19.42;;;10.52;;
35126;SDS011;21300;52.006;5.798;2022-10-18T08:13:19;18.58;;;11.70;;
35126;SDS011;21300;52.006;5.798;2022-10-18T08:15:45;22.98;;;11.55;;
35126;SDS011;21300;52.006;5.798;2022-10-18T08:18:11;17.23;;;10.70;;
35126;SDS011;21300;52.006;5.798;2022-10-18T08:20:41;15.43;;;11.18;;
35126;SDS011;21300;52.006;5.798;2022-10-18T08:23:08;35.83;;;11.77;;
35126;SDS011;21300;52.006;5.798;2022-10-18T08:25:33;20.60;;;12.30;;
35126;SDS011;21300;52.006;5.798;2022-10-18T08:27:59;17.05;;;11.90;;
35126;SDS011;21300;52.006;5.798;2022-10-18T08:30:25;18.80;;;11.63;;
35126;SDS011;21300;52.006;5.798;2022-10-18T08:32:51;16.02;;;11.05;;
35126;SDS011;21300;52.006;5.798;2022-10-18T08:35:17;14.38;;;10.25;;
35126;SDS011;21300;52.006;5.798;2022-10-18T08:37:42;17.95;;;10.75;;
35126;SDS011;21300;52.006;5.798;2022-10-18T08:40:09;21.20;;;11.43;;
35126;SDS011;21300;52.006;5.798;2022-10-18T08:45:12;20.77;;;10.90;;
35126;SDS011;21300;52.006;5.798;2022-10-18T08:47:39;19.48;;;10.32;;
35126;SDS011;21300;52.006;5.798;2022-10-18T08:50:17;17.10;;;10.23;;
35126;SDS011;21300;52.006;5.798;2022-10-18T08:52:50;13.65;;;9.25;;
35126;SDS011;21300;52.006;5.798;2022-10-18T08:57:53;24.38;;;10.77;;
35126;SDS011;21300;52.006;5.798;2022-10-18T09:00:22;19.08;;;10.07;;
35126;SDS011;21300;52.006;5.798;2022-10-18T09:02:54;20.15;;;9.18;;
35126;SDS011;21300;52.006;5.798;2022-10-18T09:11:26;17.65;;;9.32;;
35126;SDS011;21300;52.006;5.798;2022-10-18T09:14:01;21.60;;;8.30;;
35126;SDS011;21300;52.006;5.798;2022-10-18T09:22:25;13.90;;;5.90;;
35126;SDS011;21300;52.006;5.798;2022-10-18T09:25:16;15.27;;;6.20;;
35126;SDS011;21300;52.006;5.798;2022-10-18T09:27:55;14.05;;;4.75;;
35126;SDS011;21300;52.006;5.798;2022-10-18T09:30:42;14.82;;;6.80;;
35126;SDS011;21300;52.006;5.798;2022-10-18T09:36:05;17.23;;;5.03;;
35126;SDS011;21300;52.006;5.798;2022-10-18T09:38:44;14.80;;;4.60;;
35126;SDS011;21300;52.006;5.798;2022-10-18T09:41:14;14.98;;;4.60;;
35126;SDS011;21300;52.006;5.798;2022-10-18T09:44:18;16.27;;;5.25;;
35126;SDS011;21300;52.006;5.798;2022-10-18T09:46:42;12.20;;;3.13;;
35126;SDS011;21300;52.006;5.798;2022-10-18T09:49:15;9.40;;;2.67;;
35126;SDS011;21300;52.006;5.798;2022-10-18T09:51:44;11.88;;;2.60;;
35126;SDS011;21300;52.006;5.798;2022-10-18T09:57:06;9.90;;;1.90;;
35126;SDS011;21300;52.006;5.798;2022-10-18T10:02:17;11.23;;;1.88;;
35126;SDS011;21300;52.006;5.798;2022-10-18T10:04:45;12.18;;;2.65;;
35126;SDS011;21300;52.006;5.798;2022-10-18T10:07:34;10.65;;;1.85;;
35126;SDS011;21300;52.006;5.798;2022-10-18T10:10:07;8.43;;;1.88;;
35126;SDS011;21300;52.006;5.798;2022-10-18T10:15:54;11.73;;;2.00;;
35126;SDS011;21300;52.006;5.798;2022-10-18T10:18:22;6.30;;;1.50;;
35126;SDS011;21300;52.006;5.798;2022-10-18T10:20:51;10.60;;;1.85;;
35126;SDS011;21300;52.006;5.798;2022-10-18T10:23:19;8.18;;;1.52;;
35126;SDS011;21300;52.006;5.798;2022-10-18T10:26:22;10.43;;;1.80;;
35126;SDS011;21300;52.006;5.798;2022-10-18T10:28:53;11.18;;;1.55;;
35126;SDS011;21300;52.006;5.798;2022-10-18T10:31:26;9.65;;;1.25;;
35126;SDS011;21300;52.006;5.798;2022-10-18T10:36:45;10.13;;;1.48;;
35126;SDS011;21300;52.006;5.798;2022-10-18T10:39:15;13.13;;;1.73;;
35126;SDS011;21300;52.006;5.798;2022-10-18T10:41:51;7.80;;;1.38;;
35126;SDS011;21300;52.006;5.798;2022-10-18T10:44:22;7.25;;;1.30;;
35126;SDS011;21300;52.006;5.798;2022-10-18T10:46:54;5.68;;;1.30;;
35126;SDS011;21300;52.006;5.798;2022-10-18T10:49:22;9.07;;;1.27;;
35126;SDS011;21300;52.006;5.798;2022-10-18T10:51:52;10.25;;;1.60;;
35126;SDS011;21300;52.006;5.798;2022-10-18T10:54:26;8.40;;;1.65;;
35126;SDS011;21300;52.006;5.798;2022-10-18T10:56:57;13.43;;;1.48;;
35126;SDS011;21300;52.006;5.798;2022-10-18T10:59:25;6.47;;;1.30;;
35126;SDS011;21300;52.006;5.798;2022-10-18T11:04:38;8.43;;;1.13;;
35126;SDS011;21300;52.006;5.798;2022-10-18T11:12:13;6.82;;;1.33;;
35126;SDS011;21300;52.006;5.798;2022-10-18T11:14:52;8.20;;;1.10;;
35126;SDS011;21300;52.006;5.798;2022-10-18T11:17:31;11.55;;;1.73;;
35126;SDS011;21300;52.006;5.798;2022-10-18T11:22:36;7.75;;;1.70;;
35126;SDS011;21300;52.006;5.798;2022-10-18T11:25:24;4.57;;;1.52;;
35126;SDS011;21300;52.006;5.798;2022-10-18T11:28:00;7.75;;;1.10;;
35126;SDS011;21300;52.006;5.798;2022-10-18T11:30:36;7.30;;;1.73;;
35126;SDS011;21300;52.006;5.798;2022-10-18T11:39:33;9.05;;;1.50;;
35126;SDS011;21300;52.006;5.798;2022-10-18T11:57:59;11.65;;;2.40;;
35126;SDS011;21300;52.006;5.798;2022-10-18T12:00:34;11.50;;;1.65;;
35126;SDS011;21300;52.006;5.798;2022-10-18T12:05:57;10.20;;;2.28;;
35126;SDS011;21300;52.006;5.798;2022-10-18T12:11:27;8.38;;;1.10;;
35126;SDS011;21300;52.006;5.798;2022-10-18T12:14:01;7.80;;;1.52;;
35126;SDS011;21300;52.006;5.798;2022-10-18T12:16:32;7.53;;;1.25;;
35126;SDS011;21300;52.006;5.798;2022-10-18T12:19:02;6.35;;;1.42;;
35126;SDS011;21300;52.006;5.798;2022-10-18T12:21:35;6.35;;;1.15;;
35126;SDS011;21300;52.006;5.798;2022-10-18T12:24:05;4.82;;;1.10;;
35126;SDS011;21300;52.006;5.798;2022-10-18T12:26:36;6.70;;;1.27;;
35126;SDS011;21300;52.006;5.798;2022-10-18T12:31:51;5.25;;;1.15;;
35126;SDS011;21300;52.006;5.798;2022-10-18T12:36:58;5.53;;;0.85;;
35126;SDS011;21300;52.006;5.798;2022-10-18T12:39:37;6.70;;;1.42;;
35126;SDS011;21300;52.006;5.798;2022-10-18T12:42:15;6.82;;;1.65;;
35126;SDS011;21300;52.006;5.798;2022-10-18T12:44:46;6.13;;;1.33;;
35126;SDS011;21300;52.006;5.798;2022-10-18T12:47:20;8.80;;;1.15;;
35126;SDS011;21300;52.006;5.798;2022-10-18T12:49:55;7.80;;;1.10;;
35126;SDS011;21300;52.006;5.798;2022-10-18T12:52:25;6.28;;;1.08;;
35126;SDS011;21300;52.006;5.798;2022-10-18T12:55:01;4.53;;;0.95;;
35126;SDS011;21300;52.006;5.798;2022-10-18T13:19:14;5.50;;;0.93;;
35126;SDS011;21300;52.006;5.798;2022-10-18T13:38:38;4.60;;;0.85;;
35126;SDS011;21300;52.006;5.798;2022-10-18T13:46:21;6.65;;;1.27;;
35126;SDS011;21300;52.006;5.798;2022-10-18T14:00:33;7.80;;;1.13;;
35126;SDS011;21300;52.006;5.798;2022-10-18T14:08:19;7.55;;;1.27;;
35126;SDS011;21300;52.006;5.798;2022-10-18T14:13:32;6.82;;;1.50;;
35126;SDS011;21300;52.006;5.798;2022-10-18T14:16:23;4.90;;;0.77;;
35126;SDS011;21300;52.006;5.798;2022-10-18T14:19:03;6.00;;;0.90;;
35126;SDS011;21300;52.006;5.798;2022-10-18T14:22:03;3.88;;;0.73;;
35126;SDS011;21300;52.006;5.798;2022-10-18T14:24:37;5.28;;;0.80;;
35126;SDS011;21300;52.006;5.798;2022-10-18T14:27:19;5.20;;;1.00;;
35126;SDS011;21300;52.006;5.798;2022-10-18T14:30:12;4.45;;;0.90;;
35126;SDS011;21300;52.006;5.798;2022-10-18T14:32:43;5.50;;;0.80;;
35126;SDS011;21300;52.006;5.798;2022-10-18T14:35:17;5.07;;;0.80;;
35126;SDS011;21300;52.006;5.798;2022-10-18T14:37:46;3.03;;;0.55;;
35126;SDS011;21300;52.006;5.798;2022-10-18T14:43:10;6.32;;;1.00;;
35126;SDS011;21300;52.006;5.798;2022-10-18T14:45:37;4.85;;;0.80;;
35126;SDS011;21300;52.006;5.798;2022-10-18T14:48:13;4.47;;;0.90;;
35126;SDS011;21300;52.006;5.798;2022-10-18T14:50:41;6.18;;;1.00;;
35126;SDS011;21300;52.006;5.798;2022-10-18T14:53:13;7.22;;;1.00;;
35126;SDS011;21300;52.006;5.798;2022-10-18T14:55:42;5.63;;;1.08;;
35126;SDS011;21300;52.006;5.798;2022-10-18T14:58:16;8.43;;;1.08;;
35126;SDS011;21300;52.006;5.798;2022-10-18T15:00:44;5.20;;;1.10;;
35126;SDS011;21300;52.006;5.798;2022-10-18T15:03:13;6.53;;;1.10;;
35126;SDS011;21300;52.006;5.798;2022-10-18T15:05:51;6.80;;;1.00;;
35126;SDS011;21300;52.006;5.798;2022-10-18T15:08:22;6.50;;;1.20;;
35126;SDS011;21300;52.006;5.798;2022-10-18T15:10:50;3.97;;;0.90;;
35126;SDS011;21300;52.006;5.798;2022-10-18T15:13:16;5.85;;;1.25;;
35126;SDS011;21300;52.006;5.798;2022-10-18T15:15:43;4.35;;;1.40;;
35126;SDS011;21300;52.006;5.798;2022-10-18T15:18:14;5.25;;;0.90;;
35126;SDS011;21300;52.006;5.798;2022-10-18T15:23:32;9.52;;;1.58;;
35126;SDS011;21300;52.006;5.798;2022-10-18T15:25:59;9.90;;;1.45;;
35126;SDS011;21300;52.006;5.798;2022-10-18T15:28:29;6.93;;;1.50;;
35126;SDS011;21300;52.006;5.798;2022-10-18T15:30:57;9.15;;;1.30;;
35126;SDS011;21300;52.006;5.798;2022-10-18T15:33:23;6.35;;;1.38;;
35126;SDS011;21300;52.006;5.798;2022-10-18T15:35:51;5.80;;;1.08;;
35126;SDS011;21300;52.006;5.798;2022-10-18T15:38:25;6.47;;;1.30;;
35126;SDS011;21300;52.006;5.798;2022-10-18T15:40:52;7.65;;;0.93;;
35126;SDS011;21300;52.006;5.798;2022-10-18T15:45:47;6.20;;;1.33;;
35126;SDS011;21300;52.006;5.798;2022-10-18T15:48:19;5.65;;;0.90;;
35126;SDS011;21300;52.006;5.798;2022-10-18T15:55:46;8.10;;;1.60;;
35126;SDS011;21300;52.006;5.798;2022-10-18T16:00:48;8.45;;;1.52;;
35126;SDS011;21300;52.006;5.798;2022-10-18T16:03:16;10.88;;;1.65;;
35126;SDS011;21300;52.006;5.798;2022-10-18T16:05:43;6.30;;;1.58;;
35126;SDS011;21300;52.006;5.798;2022-10-18T16:08:22;7.30;;;1.95;;
35126;SDS011;21300;52.006;5.798;2022-10-18T16:10:49;6.57;;;1.30;;
35126;SDS011;21300;52.006;5.798;2022-10-18T16:13:16;12.65;;;1.77;;
35126;SDS011;21300;52.006;5.798;2022-10-18T16:15:42;11.02;;;2.00;;
35126;SDS011;21300;52.006;5.798;2022-10-18T16:18:10;7.50;;;1.80;;
35126;SDS011;21300;52.006;5.798;2022-10-18T16:20:39;9.00;;;1.80;;
35126;SDS011;21300;52.006;5.798;2022-10-18T16:23:24;9.48;;;2.35;;
35126;SDS011;21300;52.006;5.798;2022-10-18T16:25:52;10.07;;;1.50;;
35126;SDS011;21300;52.006;5.798;2022-10-18T16:28:20;10.77;;;1.42;;
35126;SDS011;21300;52.006;5.798;2022-10-18T16:30:55;7.20;;;1.48;;
35126;SDS011;21300;52.006;5.798;2022-10-18T16:33:25;7.18;;;1.95;;
35126;SDS011;21300;52.006;5.798;2022-10-18T16:35:51;8.27;;;2.13;;
35126;SDS011;21300;52.006;5.798;2022-10-18T16:38:38;10.52;;;1.40;;
35126;SDS011;21300;52.006;5.798;2022-10-18T16:41:04;8.93;;;1.45;;
35126;SDS011;21300;52.006;5.798;2022-10-18T16:43:31;9.40;;;1.40;;
35126;SDS011;21300;52.006;5.798;2022-10-18T16:45:57;5.30;;;1.02;;
35126;SDS011;21300;52.006;5.798;2022-10-18T16:48:23;7.88;;;1.70;;
35126;SDS011;21300;52.006;5.798;2022-10-18T16:50:49;9.23;;;1.70;;
35126;SDS011;21300;52.006;5.798;2022-10-18T16:53:16;9.07;;;1.83;;
35126;SDS011;21300;52.006;5.798;2022-10-18T16:55:43;7.10;;;1.60;;
35126;SDS011;21300;52.006;5.798;2022-10-18T16:58:13;8.82;;;1.48;;
35126;SDS011;21300;52.006;5.798;2022-10-18T17:00:41;9.00;;;1.88;;
35126;SDS011;21300;52.006;5.798;2022-10-18T17:03:08;9.10;;;1.67;;
35126;SDS011;21300;52.006;5.798;2022-10-18T17:05:34;8.65;;;1.67;;
35126;SDS011;21300;52.006;5.798;2022-10-18T17:08:00;6.00;;;1.40;;
35126;SDS011;21300;52.006;5.798;2022-10-18T17:10:25;8.90;;;1.75;;
35126;SDS011;21300;52.006;5.798;2022-10-18T17:12:51;9.98;;;1.50;;
35126;SDS011;21300;52.006;5.798;2022-10-18T17:15:18;6.90;;;1.88;;
35126;SDS011;21300;52.006;5.798;2022-10-18T17:17:44;7.07;;;2.00;;
35126;SDS011;21300;52.006;5.798;2022-10-18T17:20:11;10.35;;;1.67;;
35126;SDS011;21300;52.006;5.798;2022-10-18T17:22:45;7.90;;;2.25;;
35126;SDS011;21300;52.006;5.798;2022-10-18T17:25:11;5.70;;;1.40;;
35126;SDS011;21300;52.006;5.798;2022-10-18T17:27:37;7.60;;;1.60;;
35126;SDS011;21300;52.006;5.798;2022-10-18T17:30:02;9.48;;;1.73;;
35126;SDS011;21300;52.006;5.798;2022-10-18T17:32:28;10.52;;;1.60;;
35126;SDS011;21300;52.006;5.798;2022-10-18T17:34:54;8.05;;;1.50;;
35126;SDS011;21300;52.006;5.798;2022-10-18T17:37:19;7.82;;;1.45;;
35126;SDS011;21300;52.006;5.798;2022-10-18T17:39:45;11.63;;;1.77;;